createdAt,value
2022-12-05T00:02:39.079Z,54.67
2022-12-05T00:06:04.090Z,54.70
2022-12-05T00:09:20.093Z,54.75
2022-12-05T00:12:44.719Z,54.73
2022-12-05T00:16:06.494Z,54.66
2022-12-05T00:19:56.792Z,54.70
2022-12-05T00:23:18.584Z,54.73
2022-12-05T00:27:27.573Z,54.66
2022-12-05T00:31:21.567Z,54.64
2022-12-05T00:38:08.923Z,54.82
2022-12-05T00:41:51.323Z,54.94
2022-12-05T00:45:14.257Z,55.04
2022-12-05T00:48:41.644Z,55.10
2022-12-05T00:52:01.447Z,55.16
2022-12-05T00:55:17.735Z,55.14
2022-12-05T00:58:38.656Z,55.14
2022-12-05T01:01:58.258Z,55.10
2022-12-05T01:05:12.501Z,55.11
2022-12-05T01:08:25.982Z,55.12
2022-12-05T01:11:52.067Z,55.17
2022-12-05T01:15:13.322Z,55.11
2022-12-05T01:18:57.068Z,55.15
2022-12-05T01:22:10.584Z,55.17
2022-12-05T01:25:41.444Z,55.05
2022-12-05T01:28:58.109Z,55.07
2022-12-05T01:32:20.219Z,55.21
2022-12-05T01:35:38.215Z,55.27
2022-12-05T01:43:22.873Z,55.27
2022-12-05T01:51:02.811Z,55.41
2022-12-05T01:54:44.595Z,55.35
2022-12-05T01:58:23.051Z,55.33
2022-12-05T02:01:51.903Z,55.37
2022-12-05T02:05:27.734Z,55.37
2022-12-05T02:08:48.082Z,55.38
2022-12-05T02:12:17.176Z,55.38
2022-12-05T02:15:57.077Z,55.40
2022-12-05T02:19:26.638Z,55.43
2022-12-05T02:23:37.649Z,55.38
2022-12-05T02:27:07.357Z,55.37
2022-12-05T02:30:32.121Z,55.41
2022-12-05T02:34:14.158Z,55.46
2022-12-05T02:38:04.800Z,55.59
2022-12-05T02:41:32.421Z,55.59
2022-12-05T02:45:12.514Z,55.64
2022-12-05T02:48:29.979Z,55.68
2022-12-05T02:51:45.740Z,55.76
2022-12-05T02:55:04.301Z,55.79
2022-12-05T02:58:31.512Z,55.82
2022-12-05T03:01:54.978Z,55.79
2022-12-05T03:09:03.503Z,55.74
2022-12-05T03:12:41.770Z,55.74
2022-12-05T03:16:04.645Z,55.93
2022-12-05T03:19:42.822Z,55.84
2022-12-05T03:23:22.638Z,55.72
2022-12-05T03:27:16.900Z,55.79
2022-12-05T03:30:57.273Z,55.90
2022-12-05T03:34:15.225Z,55.88
2022-12-05T03:38:06.773Z,55.93
2022-12-05T03:45:24.691Z,55.72
2022-12-05T03:49:23.175Z,55.69
2022-12-05T03:53:18.526Z,55.88
2022-12-05T03:56:38.163Z,55.96
2022-12-05T03:59:59.598Z,55.97
2022-12-05T04:03:34.103Z,55.99
2022-12-05T04:07:07.071Z,56.03
2022-12-05T04:10:25.950Z,56.01
2022-12-05T04:14:07.766Z,56.01
2022-12-05T04:17:36.470Z,56.15
2022-12-05T04:21:15.277Z,55.95
2022-12-05T04:24:54.265Z,55.90
2022-12-05T04:28:53.563Z,56.07
2022-12-05T04:32:25.863Z,56.07
2022-12-05T04:35:46.081Z,56.15
2022-12-05T04:39:20.516Z,56.16
2022-12-05T04:42:40.183Z,56.20
2022-12-05T04:45:55.867Z,56.16
2022-12-05T04:49:16.513Z,56.25
2022-12-05T04:52:38.403Z,56.30
2022-12-05T04:55:52.044Z,56.25
2022-12-05T04:59:14.681Z,56.33
2022-12-05T05:02:34.459Z,56.20
2022-12-05T05:05:55.220Z,56.20
2022-12-05T05:09:22.368Z,56.18
2022-12-05T05:12:48.744Z,56.22
2022-12-05T05:19:20.941Z,56.19
2022-12-05T05:22:54.268Z,56.13
2022-12-05T05:26:22.097Z,56.13
2022-12-05T05:29:56.426Z,56.28
2022-12-05T05:33:30.187Z,56.25
2022-12-05T05:50:55.403Z,56.39
2022-12-05T05:54:17.300Z,56.35
2022-12-05T05:58:10.521Z,56.36
2022-12-05T06:02:03.942Z,56.40
2022-12-05T06:13:35.950Z,56.32
2022-12-05T06:17:09.448Z,56.51
2022-12-05T06:20:22.251Z,56.55
2022-12-05T06:23:43.624Z,56.74
2022-12-05T06:27:07.139Z,56.74
2022-12-05T07:04:00.982Z,56.87
2022-12-05T07:07:18.222Z,56.97
2022-12-05T07:14:46.221Z,56.93
2022-12-05T07:17:46.614Z,56.88
2022-12-05T07:21:17.282Z,56.85
2022-12-05T07:24:27.200Z,56.78
2022-12-05T07:27:38.388Z,56.82
2022-12-05T07:30:47.190Z,56.81
2022-12-05T07:33:57.874Z,56.82
2022-12-05T07:51:58.292Z,57.19
2022-12-05T07:55:18.023Z,57.16
2022-12-05T07:58:40.720Z,57.20
2022-12-05T08:01:58.434Z,57.18
2022-12-05T08:05:16.734Z,57.13
2022-12-05T08:16:11.305Z,57.12
2022-12-05T08:19:34.603Z,57.35
2022-12-05T08:22:55.564Z,57.32
2022-12-05T08:30:09.509Z,57.33
2022-12-05T08:33:21.553Z,57.28
2022-12-05T08:36:32.436Z,57.33
2022-12-05T08:39:43.663Z,57.31
2022-12-05T08:42:56.524Z,57.25
2022-12-05T08:46:19.461Z,57.25
2022-12-05T08:49:33.165Z,57.13
2022-12-05T08:52:53.240Z,57.15
2022-12-05T08:56:04.803Z,57.25
2022-12-05T08:59:18.329Z,57.17
2022-12-05T09:02:33.301Z,57.15
2022-12-05T09:05:53.798Z,57.18
2022-12-05T09:09:13.639Z,57.23
2022-12-05T09:20:34.421Z,57.22
2022-12-05T09:24:32.667Z,57.15
2022-12-05T09:28:00.530Z,57.04
2022-12-05T09:31:26.066Z,56.93
2022-12-05T09:34:49.204Z,56.98
2022-12-05T09:38:06.701Z,57.09
2022-12-05T09:45:32.660Z,57.05
2022-12-05T09:48:53.246Z,57.00
2022-12-05T09:52:09.059Z,56.96
2022-12-05T09:55:34.105Z,56.94
2022-12-05T09:59:18.620Z,57.01
2022-12-05T10:02:12.231Z,57.08
2022-12-05T10:15:02.537Z,56.88
2022-12-05T10:19:20.341Z,56.92
2022-12-05T10:29:07.602Z,56.85
2022-12-05T10:35:10.466Z,56.63
2022-12-05T10:41:28.055Z,56.63
2022-12-05T10:44:53.670Z,56.63
2022-12-05T10:56:42.523Z,56.40
2022-12-05T11:27:44.330Z,56.25
2022-12-05T11:30:55.210Z,56.22
2022-12-05T11:38:10.737Z,56.21
2022-12-05T11:41:55.458Z,56.19
2022-12-05T11:45:52.586Z,56.17
2022-12-05T11:49:30.750Z,56.16
2022-12-05T11:53:18.525Z,55.96
2022-12-05T11:56:52.516Z,55.91
2022-12-05T12:00:21.049Z,55.91
2022-12-05T12:04:27.253Z,55.73
2022-12-05T12:08:26.233Z,55.70
2022-12-05T12:12:15.199Z,55.75
2022-12-05T12:16:05.192Z,55.70
2022-12-05T12:19:44.739Z,55.68
2022-12-05T12:23:12.856Z,55.48
2022-12-05T12:26:59.611Z,55.41
2022-12-05T12:30:46.342Z,55.40
2022-12-05T12:54:54.727Z,55.32
2022-12-05T12:58:28.157Z,55.27
2022-12-05T13:02:15.678Z,55.27
2022-12-05T13:06:18.128Z,55.21
2022-12-05T13:10:08.691Z,55.15
2022-12-05T13:21:26.914Z,54.99
2022-12-05T13:25:09.339Z,54.90
2022-12-05T13:37:35.474Z,54.84
2022-12-05T13:41:52.619Z,54.88
2022-12-05T13:53:24.684Z,54.83
2022-12-05T13:57:30.683Z,54.86
2022-12-05T14:01:05.753Z,54.82
2022-12-05T14:16:36.966Z,54.80
2022-12-05T14:23:56.719Z,54.73
2022-12-05T14:27:55.018Z,54.73
2022-12-05T14:31:21.972Z,54.76
2022-12-05T14:35:07.806Z,54.75
2022-12-05T14:39:10.184Z,54.70
2022-12-05T14:42:56.485Z,54.66
2022-12-05T14:51:10.428Z,54.63
2022-12-05T14:54:52.266Z,54.65
2022-12-05T14:59:06.001Z,54.64
2022-12-05T15:06:36.727Z,54.63
2022-12-05T15:10:33.223Z,54.65
2022-12-05T15:14:18.275Z,54.62
2022-12-05T15:17:51.515Z,54.59
2022-12-05T15:25:07.434Z,54.59
2022-12-05T15:42:31.392Z,54.36
2022-12-05T15:46:35.109Z,54.39
2022-12-05T16:04:12.792Z,54.55
2022-12-05T16:07:32.574Z,54.52
2022-12-05T16:11:05.539Z,54.49
2022-12-05T16:27:02.357Z,54.55
2022-12-05T16:34:02.235Z,54.50
2022-12-05T17:30:37.986Z,54.55
2022-12-05T17:34:20.835Z,54.28
2022-12-05T17:37:47.592Z,54.29
2022-12-05T17:41:40.454Z,54.22
2022-12-05T17:45:02.320Z,54.30
2022-12-05T17:48:41.800Z,54.31
2022-12-05T17:52:25.401Z,54.22
2022-12-05T17:55:57.476Z,54.21
2022-12-05T17:59:56.785Z,54.27
2022-12-05T18:06:55.138Z,54.14
2022-12-05T18:10:25.774Z,54.14
2022-12-05T18:13:49.073Z,54.02
